sensor_id;sensor_type;location;lat;lon;timestamp;temperature;humidity
20158;DHT22;10239;56.820;24.416;2024-02-26T00:01:38;6.50;99.90
20158;DHT22;10239;56.820;24.416;2024-02-26T00:04:06;6.60;99.90
20158;DHT22;10239;56.820;24.416;2024-02-26T00:06:34;6.60;99.90
20158;DHT22;10239;56.820;24.416;2024-02-26T00:09:01;6.60;99.90
20158;DHT22;10239;56.820;24.416;2024-02-26T00:11:30;6.60;99.90
20158;DHT22;10239;56.820;24.416;2024-02-26T00:13:58;6.60;99.90
20158;DHT22;10239;56.820;24.416;2024-02-26T00:16:26;6.60;99.90
20158;DHT22;10239;56.820;24.416;2024-02-26T00:18:53;6.60;99.90
20158;DHT22;10239;56.820;24.416;2024-02-26T00:21:21;6.40;99.90
20158;DHT22;10239;56.820;24.416;2024-02-26T00:23:53;6.40;99.90
20158;DHT22;10239;56.820;24.416;2024-02-26T00:26:21;6.40;99.90
20158;DHT22;10239;56.820;24.416;2024-02-26T00:28:48;6.40;99.90
20158;DHT22;10239;56.820;24.416;2024-02-26T00:31:16;6.60;99.90
20158;DHT22;10239;56.820;24.416;2024-02-26T00:33:44;6.50;99.90
20158;DHT22;10239;56.820;24.416;2024-02-26T00:36:12;6.60;99.90
20158;DHT22;10239;56.820;24.416;2024-02-26T00:38:39;6.70;99.90
20158;DHT22;10239;56.820;24.416;2024-02-26T00:41:07;6.60;99.90
20158;DHT22;10239;56.820;24.416;2024-02-26T00:43:35;6.60;99.90
20158;DHT22;10239;56.820;24.416;2024-02-26T00:46:02;6.60;99.90
20158;DHT22;10239;56.820;24.416;2024-02-26T00:48:30;6.50;99.90
20158;DHT22;10239;56.820;24.416;2024-02-26T00:50:58;6.70;99.90
20158;DHT22;10239;56.820;24.416;2024-02-26T00:53:25;6.50;99.90
20158;DHT22;10239;56.820;24.416;2024-02-26T00:55:53;6.70;99.90
20158;DHT22;10239;56.820;24.416;2024-02-26T00:58:20;6.70;99.90
20158;DHT22;10239;56.820;24.416;2024-02-26T01:00:47;6.80;99.90
20158;DHT22;10239;56.820;24.416;2024-02-26T01:03:15;6.70;99.90
20158;DHT22;10239;56.820;24.416;2024-02-26T01:05:43;6.60;99.90
20158;DHT22;10239;56.820;24.416;2024-02-26T01:08:11;6.50;99.90
20158;DHT22;10239;56.820;24.416;2024-02-26T01:10:38;6.40;99.90
20158;DHT22;10239;56.820;24.416;2024-02-26T01:13:06;6.50;99.90
20158;DHT22;10239;56.820;24.416;2024-02-26T01:15:35;6.70;99.90
20158;DHT22;10239;56.820;24.416;2024-02-26T01:18:02;6.80;99.90
20158;DHT22;10239;56.820;24.416;2024-02-26T01:20:30;6.60;99.90
20158;DHT22;10239;56.820;24.416;2024-02-26T01:22:57;6.70;99.90
20158;DHT22;10239;56.820;24.416;2024-02-26T01:25:25;6.70;99.90
20158;DHT22;10239;56.820;24.416;2024-02-26T01:27:52;6.70;99.90
20158;DHT22;10239;56.820;24.416;2024-02-26T01:30:20;6.70;99.90
20158;DHT22;10239;56.820;24.416;2024-02-26T01:32:48;6.70;99.90
20158;DHT22;10239;56.820;24.416;2024-02-26T01:35:15;6.60;99.90
20158;DHT22;10239;56.820;24.416;2024-02-26T01:37:43;6.70;99.90
20158;DHT22;10239;56.820;24.416;2024-02-26T01:40:11;6.80;99.90
20158;DHT22;10239;56.820;24.416;2024-02-26T01:42:39;6.60;99.90
20158;DHT22;10239;56.820;24.416;2024-02-26T01:45:14;6.50;99.90
20158;DHT22;10239;56.820;24.416;2024-02-26T01:47:43;6.50;99.90
20158;DHT22;10239;56.820;24.416;2024-02-26T01:50:13;6.50;99.90
20158;DHT22;10239;56.820;24.416;2024-02-26T01:52:41;6.30;99.90
20158;DHT22;10239;56.820;24.416;2024-02-26T01:55:08;6.30;99.90
20158;DHT22;10239;56.820;24.416;2024-02-26T01:57:36;6.50;99.90
20158;DHT22;10239;56.820;24.416;2024-02-26T02:00:04;6.80;99.90
20158;DHT22;10239;56.820;24.416;2024-02-26T02:02:34;6.80;99.90
20158;DHT22;10239;56.820;24.416;2024-02-26T02:05:03;6.40;99.90
20158;DHT22;10239;56.820;24.416;2024-02-26T02:07:31;6.50;99.90
20158;DHT22;10239;56.820;24.416;2024-02-26T02:09:59;6.60;99.90
20158;DHT22;10239;56.820;24.416;2024-02-26T02:12:27;6.70;99.90
20158;DHT22;10239;56.820;24.416;2024-02-26T02:14:55;6.70;99.90
20158;DHT22;10239;56.820;24.416;2024-02-26T02:17:22;6.70;99.90
20158;DHT22;10239;56.820;24.416;2024-02-26T02:19:50;6.50;99.90
20158;DHT22;10239;56.820;24.416;2024-02-26T02:22:18;6.60;99.90
20158;DHT22;10239;56.820;24.416;2024-02-26T02:24:46;6.50;99.90
20158;DHT22;10239;56.820;24.416;2024-02-26T02:27:14;6.60;99.90
20158;DHT22;10239;56.820;24.416;2024-02-26T02:29:42;6.70;99.90
20158;DHT22;10239;56.820;24.416;2024-02-26T02:32:10;6.70;99.90
20158;DHT22;10239;56.820;24.416;2024-02-26T02:34:39;6.80;99.90
20158;DHT22;10239;56.820;24.416;2024-02-26T02:37:06;6.90;99.90
20158;DHT22;10239;56.820;24.416;2024-02-26T02:39:34;6.90;99.90
20158;DHT22;10239;56.820;24.416;2024-02-26T02:42:02;6.80;99.90
20158;DHT22;10239;56.820;24.416;2024-02-26T02:44:29;6.80;99.90
20158;DHT22;10239;56.820;24.416;2024-02-26T02:46:57;6.70;99.90
20158;DHT22;10239;56.820;24.416;2024-02-26T02:49:24;6.70;99.90
20158;DHT22;10239;56.820;24.416;2024-02-26T02:51:52;6.70;99.90
20158;DHT22;10239;56.820;24.416;2024-02-26T02:54:21;6.70;99.90
20158;DHT22;10239;56.820;24.416;2024-02-26T02:56:49;6.80;99.90
20158;DHT22;10239;56.820;24.416;2024-02-26T02:59:17;6.70;99.90
20158;DHT22;10239;56.820;24.416;2024-02-26T03:01:44;6.70;99.90
20158;DHT22;10239;56.820;24.416;2024-02-26T03:04:12;6.80;99.90
20158;DHT22;10239;56.820;24.416;2024-02-26T03:06:40;6.80;99.90
20158;DHT22;10239;56.820;24.416;2024-02-26T03:09:07;6.70;99.90
20158;DHT22;10239;56.820;24.416;2024-02-26T03:11:35;6.70;99.90
20158;DHT22;10239;56.820;24.416;2024-02-26T03:14:03;6.80;99.90
20158;DHT22;10239;56.820;24.416;2024-02-26T03:16:32;6.80;99.90
20158;DHT22;10239;56.820;24.416;2024-02-26T03:18:59;6.70;99.90
20158;DHT22;10239;56.820;24.416;2024-02-26T03:21:27;6.80;99.90
20158;DHT22;10239;56.820;24.416;2024-02-26T03:23:55;6.90;99.90
20158;DHT22;10239;56.820;24.416;2024-02-26T03:26:23;6.90;99.90
20158;DHT22;10239;56.820;24.416;2024-02-26T03:28:50;6.90;99.90
20158;DHT22;10239;56.820;24.416;2024-02-26T03:31:18;6.90;99.90
20158;DHT22;10239;56.820;24.416;2024-02-26T03:33:46;6.90;99.90
20158;DHT22;10239;56.820;24.416;2024-02-26T03:36:14;6.90;99.90
20158;DHT22;10239;56.820;24.416;2024-02-26T03:38:42;6.90;99.90
20158;DHT22;10239;56.820;24.416;2024-02-26T03:41:09;6.80;99.90
20158;DHT22;10239;56.820;24.416;2024-02-26T03:43:36;6.80;99.90
20158;DHT22;10239;56.820;24.416;2024-02-26T03:46:06;6.90;99.90
20158;DHT22;10239;56.820;24.416;2024-02-26T03:48:34;6.80;99.90
20158;DHT22;10239;56.820;24.416;2024-02-26T03:51:02;6.80;99.90
20158;DHT22;10239;56.820;24.416;2024-02-26T03:53:30;6.80;99.90
20158;DHT22;10239;56.820;24.416;2024-02-26T03:55:57;6.90;99.90
20158;DHT22;10239;56.820;24.416;2024-02-26T03:58:25;6.90;99.90
20158;DHT22;10239;56.820;24.416;2024-02-26T04:00:52;7.00;99.90
20158;DHT22;10239;56.820;24.416;2024-02-26T04:03:20;7.20;99.90
20158;DHT22;10239;56.820;24.416;2024-02-26T04:05:47;7.20;99.90
20158;DHT22;10239;56.820;24.416;2024-02-26T04:08:15;7.10;99.90
20158;DHT22;10239;56.820;24.416;2024-02-26T04:10:42;7.10;99.90
20158;DHT22;10239;56.820;24.416;2024-02-26T04:13:10;7.00;99.90
20158;DHT22;10239;56.820;24.416;2024-02-26T04:15:37;7.10;99.90
20158;DHT22;10239;56.820;24.416;2024-02-26T04:18:05;7.10;99.90
20158;DHT22;10239;56.820;24.416;2024-02-26T04:20:32;7.00;99.90
20158;DHT22;10239;56.820;24.416;2024-02-26T04:23:00;7.00;99.90
20158;DHT22;10239;56.820;24.416;2024-02-26T04:25:27;7.00;99.90
20158;DHT22;10239;56.820;24.416;2024-02-26T04:27:55;7.00;99.90
20158;DHT22;10239;56.820;24.416;2024-02-26T04:30:23;7.00;99.90
20158;DHT22;10239;56.820;24.416;2024-02-26T04:32:51;7.00;99.90
20158;DHT22;10239;56.820;24.416;2024-02-26T04:35:19;7.00;99.90
20158;DHT22;10239;56.820;24.416;2024-02-26T04:37:46;6.80;99.90
20158;DHT22;10239;56.820;24.416;2024-02-26T04:40:13;6.80;99.90
20158;DHT22;10239;56.820;24.416;2024-02-26T04:42:41;6.90;99.90
20158;DHT22;10239;56.820;24.416;2024-02-26T04:45:08;7.00;99.90
20158;DHT22;10239;56.820;24.416;2024-02-26T04:47:36;7.20;99.90
20158;DHT22;10239;56.820;24.416;2024-02-26T04:50:04;7.40;99.90
20158;DHT22;10239;56.820;24.416;2024-02-26T04:52:32;7.30;99.90
20158;DHT22;10239;56.820;24.416;2024-02-26T04:54:59;7.20;99.90
20158;DHT22;10239;56.820;24.416;2024-02-26T04:57:27;7.30;99.90
20158;DHT22;10239;56.820;24.416;2024-02-26T04:59:55;7.40;99.90
20158;DHT22;10239;56.820;24.416;2024-02-26T05:02:22;7.40;99.90
20158;DHT22;10239;56.820;24.416;2024-02-26T05:04:50;7.60;99.90
20158;DHT22;10239;56.820;24.416;2024-02-26T05:07:17;7.50;99.90
20158;DHT22;10239;56.820;24.416;2024-02-26T05:09:46;7.40;99.90
20158;DHT22;10239;56.820;24.416;2024-02-26T05:12:14;7.40;99.90
20158;DHT22;10239;56.820;24.416;2024-02-26T05:14:41;7.50;99.90
20158;DHT22;10239;56.820;24.416;2024-02-26T05:17:10;7.50;99.90
20158;DHT22;10239;56.820;24.416;2024-02-26T05:19:37;7.60;99.90
20158;DHT22;10239;56.820;24.416;2024-02-26T05:22:05;7.60;99.90
20158;DHT22;10239;56.820;24.416;2024-02-26T05:24:33;7.50;99.90
20158;DHT22;10239;56.820;24.416;2024-02-26T05:27:00;7.40;99.90
20158;DHT22;10239;56.820;24.416;2024-02-26T05:29:28;7.40;99.90
20158;DHT22;10239;56.820;24.416;2024-02-26T05:31:55;7.30;99.90
20158;DHT22;10239;56.820;24.416;2024-02-26T05:34:23;7.40;99.90
20158;DHT22;10239;56.820;24.416;2024-02-26T05:36:51;7.40;99.90
20158;DHT22;10239;56.820;24.416;2024-02-26T05:39:18;7.60;99.90
20158;DHT22;10239;56.820;24.416;2024-02-26T05:41:47;7.70;99.90
20158;DHT22;10239;56.820;24.416;2024-02-26T05:44:16;7.50;99.90
20158;DHT22;10239;56.820;24.416;2024-02-26T05:46:43;7.50;99.90
20158;DHT22;10239;56.820;24.416;2024-02-26T05:49:11;7.10;99.90
20158;DHT22;10239;56.820;24.416;2024-02-26T05:51:38;7.00;99.90
20158;DHT22;10239;56.820;24.416;2024-02-26T05:54:06;7.00;99.90
20158;DHT22;10239;56.820;24.416;2024-02-26T05:56:36;6.90;99.90
20158;DHT22;10239;56.820;24.416;2024-02-26T05:59:04;7.20;99.90
20158;DHT22;10239;56.820;24.416;2024-02-26T06:01:32;7.20;99.90
20158;DHT22;10239;56.820;24.416;2024-02-26T06:04:00;7.40;99.90
20158;DHT22;10239;56.820;24.416;2024-02-26T06:06:27;7.50;99.90
20158;DHT22;10239;56.820;24.416;2024-02-26T06:08:55;7.30;99.90
20158;DHT22;10239;56.820;24.416;2024-02-26T06:11:22;7.10;99.90
20158;DHT22;10239;56.820;24.416;2024-02-26T06:13:50;7.20;99.90
20158;DHT22;10239;56.820;24.416;2024-02-26T06:16:17;7.40;99.90
20158;DHT22;10239;56.820;24.416;2024-02-26T06:18:44;7.40;99.90
20158;DHT22;10239;56.820;24.416;2024-02-26T06:21:12;7.40;99.90
20158;DHT22;10239;56.820;24.416;2024-02-26T06:23:39;7.30;99.90
20158;DHT22;10239;56.820;24.416;2024-02-26T06:26:09;7.50;99.90
20158;DHT22;10239;56.820;24.416;2024-02-26T06:28:37;7.40;99.90
20158;DHT22;10239;56.820;24.416;2024-02-26T06:31:08;7.50;99.90
20158;DHT22;10239;56.820;24.416;2024-02-26T06:33:35;7.80;99.90
20158;DHT22;10239;56.820;24.416;2024-02-26T06:36:03;7.80;99.90
20158;DHT22;10239;56.820;24.416;2024-02-26T06:38:31;7.70;99.90
20158;DHT22;10239;56.820;24.416;2024-02-26T06:40:59;7.70;99.90
20158;DHT22;10239;56.820;24.416;2024-02-26T06:43:26;7.70;99.90
20158;DHT22;10239;56.820;24.416;2024-02-26T06:45:53;7.80;99.90
20158;DHT22;10239;56.820;24.416;2024-02-26T06:48:20;7.80;99.90
20158;DHT22;10239;56.820;24.416;2024-02-26T06:50:48;7.80;99.90
20158;DHT22;10239;56.820;24.416;2024-02-26T06:53:15;7.80;99.90
20158;DHT22;10239;56.820;24.416;2024-02-26T06:55:43;7.90;99.90
20158;DHT22;10239;56.820;24.416;2024-02-26T06:58:10;7.90;99.90
20158;DHT22;10239;56.820;24.416;2024-02-26T07:00:38;7.90;99.90
20158;DHT22;10239;56.820;24.416;2024-02-26T07:03:05;8.00;99.90
20158;DHT22;10239;56.820;24.416;2024-02-26T07:05:32;8.00;99.90
20158;DHT22;10239;56.820;24.416;2024-02-26T07:08:00;8.00;99.90
20158;DHT22;10239;56.820;24.416;2024-02-26T07:10:27;8.30;99.90
20158;DHT22;10239;56.820;24.416;2024-02-26T07:12:54;8.20;99.90
20158;DHT22;10239;56.820;24.416;2024-02-26T07:15:22;8.30;99.90
20158;DHT22;10239;56.820;24.416;2024-02-26T07:17:49;8.10;99.90
20158;DHT22;10239;56.820;24.416;2024-02-26T07:20:17;8.30;99.90
20158;DHT22;10239;56.820;24.416;2024-02-26T07:22:45;8.30;99.90
20158;DHT22;10239;56.820;24.416;2024-02-26T07:25:12;8.30;99.90
20158;DHT22;10239;56.820;24.416;2024-02-26T07:27:40;8.20;99.90
20158;DHT22;10239;56.820;24.416;2024-02-26T07:30:08;8.30;99.90
20158;DHT22;10239;56.820;24.416;2024-02-26T07:32:36;8.40;99.90
20158;DHT22;10239;56.820;24.416;2024-02-26T07:35:04;8.40;99.90
20158;DHT22;10239;56.820;24.416;2024-02-26T07:37:32;8.30;99.90
20158;DHT22;10239;56.820;24.416;2024-02-26T07:40:00;8.50;99.90
20158;DHT22;10239;56.820;24.416;2024-02-26T07:42:27;8.60;99.90
20158;DHT22;10239;56.820;24.416;2024-02-26T07:44:55;8.70;99.90
20158;DHT22;10239;56.820;24.416;2024-02-26T07:47:22;8.90;99.90
20158;DHT22;10239;56.820;24.416;2024-02-26T07:49:50;8.90;99.90
20158;DHT22;10239;56.820;24.416;2024-02-26T07:52:17;8.80;99.90
20158;DHT22;10239;56.820;24.416;2024-02-26T07:54:45;8.80;99.90
20158;DHT22;10239;56.820;24.416;2024-02-26T07:57:12;8.80;99.90
20158;DHT22;10239;56.820;24.416;2024-02-26T07:59:42;8.90;99.90
20158;DHT22;10239;56.820;24.416;2024-02-26T08:02:12;8.90;99.90
20158;DHT22;10239;56.820;24.416;2024-02-26T08:04:39;8.90;99.90
20158;DHT22;10239;56.820;24.416;2024-02-26T08:07:06;9.00;99.90
20158;DHT22;10239;56.820;24.416;2024-02-26T08:09:34;9.10;99.90
20158;DHT22;10239;56.820;24.416;2024-02-26T08:12:01;9.00;99.90
20158;DHT22;10239;56.820;24.416;2024-02-26T08:14:29;8.80;99.90
20158;DHT22;10239;56.820;24.416;2024-02-26T08:16:57;8.80;99.90
20158;DHT22;10239;56.820;24.416;2024-02-26T08:19:26;8.90;99.90
20158;DHT22;10239;56.820;24.416;2024-02-26T08:21:53;9.00;99.90
20158;DHT22;10239;56.820;24.416;2024-02-26T08:24:23;9.20;99.90
20158;DHT22;10239;56.820;24.416;2024-02-26T08:26:50;9.00;99.90
20158;DHT22;10239;56.820;24.416;2024-02-26T08:29:17;9.00;99.90
20158;DHT22;10239;56.820;24.416;2024-02-26T08:31:45;8.80;99.90
20158;DHT22;10239;56.820;24.416;2024-02-26T08:34:12;9.10;99.90
20158;DHT22;10239;56.820;24.416;2024-02-26T08:36:39;9.20;99.90
20158;DHT22;10239;56.820;24.416;2024-02-26T08:39:07;9.30;99.90
20158;DHT22;10239;56.820;24.416;2024-02-26T08:41:36;9.30;99.90
20158;DHT22;10239;56.820;24.416;2024-02-26T08:44:03;9.30;99.90
20158;DHT22;10239;56.820;24.416;2024-02-26T08:46:30;9.30;99.90
20158;DHT22;10239;56.820;24.416;2024-02-26T08:48:58;9.40;99.90
20158;DHT22;10239;56.820;24.416;2024-02-26T08:51:26;9.40;99.90
20158;DHT22;10239;56.820;24.416;2024-02-26T08:53:54;9.30;99.90
20158;DHT22;10239;56.820;24.416;2024-02-26T08:56:21;9.30;99.90
20158;DHT22;10239;56.820;24.416;2024-02-26T08:58:49;9.40;99.90
20158;DHT22;10239;56.820;24.416;2024-02-26T09:01:19;9.20;99.90
20158;DHT22;10239;56.820;24.416;2024-02-26T09:03:46;9.50;99.90
20158;DHT22;10239;56.820;24.416;2024-02-26T09:06:15;9.50;99.90
20158;DHT22;10239;56.820;24.416;2024-02-26T09:08:43;9.20;99.90
20158;DHT22;10239;56.820;24.416;2024-02-26T09:11:10;9.30;99.90
20158;DHT22;10239;56.820;24.416;2024-02-26T09:13:38;9.20;99.90
20158;DHT22;10239;56.820;24.416;2024-02-26T09:16:09;9.10;99.90
20158;DHT22;10239;56.820;24.416;2024-02-26T09:18:36;9.20;99.90
20158;DHT22;10239;56.820;24.416;2024-02-26T09:21:04;9.20;99.90
20158;DHT22;10239;56.820;24.416;2024-02-26T09:23:33;9.20;99.90
20158;DHT22;10239;56.820;24.416;2024-02-26T09:26:02;9.30;99.90
20158;DHT22;10239;56.820;24.416;2024-02-26T09:28:32;9.50;99.90
20158;DHT22;10239;56.820;24.416;2024-02-26T09:31:05;9.40;99.90
20158;DHT22;10239;56.820;24.416;2024-02-26T09:33:33;9.40;99.90
20158;DHT22;10239;56.820;24.416;2024-02-26T09:36:02;9.60;99.90
20158;DHT22;10239;56.820;24.416;2024-02-26T09:38:29;9.60;99.90
20158;DHT22;10239;56.820;24.416;2024-02-26T09:41:05;9.40;99.90
20158;DHT22;10239;56.820;24.416;2024-02-26T09:43:35;9.30;99.90
20158;DHT22;10239;56.820;24.416;2024-02-26T09:46:03;9.30;99.90
20158;DHT22;10239;56.820;24.416;2024-02-26T09:48:32;9.40;99.90
20158;DHT22;10239;56.820;24.416;2024-02-26T09:51:02;9.40;99.90
20158;DHT22;10239;56.820;24.416;2024-02-26T09:53:32;9.20;99.90
20158;DHT22;10239;56.820;24.416;2024-02-26T09:55:59;9.30;99.90
20158;DHT22;10239;56.820;24.416;2024-02-26T09:58:28;9.30;99.90
20158;DHT22;10239;56.820;24.416;2024-02-26T10:00:58;9.60;99.90
20158;DHT22;10239;56.820;24.416;2024-02-26T10:03:32;9.50;99.90
20158;DHT22;10239;56.820;24.416;2024-02-26T10:06:02;9.60;99.90
20158;DHT22;10239;56.820;24.416;2024-02-26T10:08:34;9.70;99.90
20158;DHT22;10239;56.820;24.416;2024-02-26T10:11:06;9.50;99.90
20158;DHT22;10239;56.820;24.416;2024-02-26T10:13:37;9.60;99.90
20158;DHT22;10239;56.820;24.416;2024-02-26T10:16:06;9.90;99.90
20158;DHT22;10239;56.820;24.416;2024-02-26T10:18:54;9.90;99.90
20158;DHT22;10239;56.820;24.416;2024-02-26T10:21:26;9.70;99.90
20158;DHT22;10239;56.820;24.416;2024-02-26T10:23:54;9.70;99.90
20158;DHT22;10239;56.820;24.416;2024-02-26T10:26:22;9.80;99.90
20158;DHT22;10239;56.820;24.416;2024-02-26T10:28:50;9.80;99.90
20158;DHT22;10239;56.820;24.416;2024-02-26T10:31:21;9.80;99.90
20158;DHT22;10239;56.820;24.416;2024-02-26T10:33:49;9.60;99.90
20158;DHT22;10239;56.820;24.416;2024-02-26T10:36:18;9.80;99.90
20158;DHT22;10239;56.820;24.416;2024-02-26T10:38:46;9.80;99.90
20158;DHT22;10239;56.820;24.416;2024-02-26T10:41:14;9.80;99.90
20158;DHT22;10239;56.820;24.416;2024-02-26T10:43:43;10.00;99.90
20158;DHT22;10239;56.820;24.416;2024-02-26T10:46:11;10.30;99.90
20158;DHT22;10239;56.820;24.416;2024-02-26T10:48:39;10.50;99.90
20158;DHT22;10239;56.820;24.416;2024-02-26T10:51:10;10.60;99.90
20158;DHT22;10239;56.820;24.416;2024-02-26T10:53:42;10.60;99.90
20158;DHT22;10239;56.820;24.416;2024-02-26T10:56:11;10.40;99.90
20158;DHT22;10239;56.820;24.416;2024-02-26T10:58:43;10.40;99.90
20158;DHT22;10239;56.820;24.416;2024-02-26T11:01:14;10.40;99.90
20158;DHT22;10239;56.820;24.416;2024-02-26T11:03:42;10.70;99.90
20158;DHT22;10239;56.820;24.416;2024-02-26T11:06:12;11.00;99.90
20158;DHT22;10239;56.820;24.416;2024-02-26T11:08:41;10.90;99.90
20158;DHT22;10239;56.820;24.416;2024-02-26T11:11:09;10.70;99.90
20158;DHT22;10239;56.820;24.416;2024-02-26T11:13:45;10.80;99.90
20158;DHT22;10239;56.820;24.416;2024-02-26T11:16:22;11.10;99.90
20158;DHT22;10239;56.820;24.416;2024-02-26T11:18:52;11.20;99.90
20158;DHT22;10239;56.820;24.416;2024-02-26T11:21:23;10.60;99.90
20158;DHT22;10239;56.820;24.416;2024-02-26T11:24:10;10.40;99.90
20158;DHT22;10239;56.820;24.416;2024-02-26T11:26:45;10.50;99.90
20158;DHT22;10239;56.820;24.416;2024-02-26T11:29:19;10.50;99.90
20158;DHT22;10239;56.820;24.416;2024-02-26T11:31:50;10.70;99.90
20158;DHT22;10239;56.820;24.416;2024-02-26T11:34:18;10.50;99.90
20158;DHT22;10239;56.820;24.416;2024-02-26T11:36:46;10.20;99.90
20158;DHT22;10239;56.820;24.416;2024-02-26T11:39:14;10.20;99.90
20158;DHT22;10239;56.820;24.416;2024-02-26T11:41:44;10.50;99.90
20158;DHT22;10239;56.820;24.416;2024-02-26T11:44:11;10.20;99.90
20158;DHT22;10239;56.820;24.416;2024-02-26T11:46:42;10.40;99.90
20158;DHT22;10239;56.820;24.416;2024-02-26T11:49:30;10.50;99.90
20158;DHT22;10239;56.820;24.416;2024-02-26T11:51:58;10.70;99.90
20158;DHT22;10239;56.820;24.416;2024-02-26T11:54:44;10.80;99.90
20158;DHT22;10239;56.820;24.416;2024-02-26T12:02:50;10.80;99.90
20158;DHT22;10239;56.820;24.416;2024-02-26T12:05:33;10.90;99.90
20158;DHT22;10239;56.820;24.416;2024-02-26T12:08:06;11.10;99.90
20158;DHT22;10239;56.820;24.416;2024-02-26T12:10:37;11.10;99.90
20158;DHT22;10239;56.820;24.416;2024-02-26T12:13:11;11.20;99.90
20158;DHT22;10239;56.820;24.416;2024-02-26T12:15:55;11.10;99.90
20158;DHT22;10239;56.820;24.416;2024-02-26T12:18:23;11.10;99.90
20158;DHT22;10239;56.820;24.416;2024-02-26T12:21:04;11.10;99.90
20158;DHT22;10239;56.820;24.416;2024-02-26T12:23:32;10.70;99.90
20158;DHT22;10239;56.820;24.416;2024-02-26T12:26:00;10.60;99.90
20158;DHT22;10239;56.820;24.416;2024-02-26T12:28:32;10.90;99.90
20158;DHT22;10239;56.820;24.416;2024-02-26T12:31:00;10.90;99.90
20158;DHT22;10239;56.820;24.416;2024-02-26T12:33:29;10.90;99.90
20158;DHT22;10239;56.820;24.416;2024-02-26T12:35:57;11.00;99.90
20158;DHT22;10239;56.820;24.416;2024-02-26T12:38:26;11.10;99.90
20158;DHT22;10239;56.820;24.416;2024-02-26T12:40:55;11.20;99.90
20158;DHT22;10239;56.820;24.416;2024-02-26T12:43:22;11.20;99.90
20158;DHT22;10239;56.820;24.416;2024-02-26T12:45:50;11.30;99.90
20158;DHT22;10239;56.820;24.416;2024-02-26T12:48:17;11.40;99.90
20158;DHT22;10239;56.820;24.416;2024-02-26T12:50:46;11.40;99.90
20158;DHT22;10239;56.820;24.416;2024-02-26T12:53:15;11.40;99.90
20158;DHT22;10239;56.820;24.416;2024-02-26T12:55:43;11.50;99.90
20158;DHT22;10239;56.820;24.416;2024-02-26T12:58:12;11.50;99.90
20158;DHT22;10239;56.820;24.416;2024-02-26T13:00:40;11.50;99.90
20158;DHT22;10239;56.820;24.416;2024-02-26T13:03:09;11.40;99.90
20158;DHT22;10239;56.820;24.416;2024-02-26T13:05:37;11.40;99.90
20158;DHT22;10239;56.820;24.416;2024-02-26T13:08:05;11.40;99.90
20158;DHT22;10239;56.820;24.416;2024-02-26T13:10:37;11.40;99.90
20158;DHT22;10239;56.820;24.416;2024-02-26T13:13:04;11.40;99.90
20158;DHT22;10239;56.820;24.416;2024-02-26T13:15:32;11.50;99.90
20158;DHT22;10239;56.820;24.416;2024-02-26T13:18:15;11.50;99.90
20158;DHT22;10239;56.820;24.416;2024-02-26T13:20:42;11.40;99.90
20158;DHT22;10239;56.820;24.416;2024-02-26T13:23:13;11.30;99.90
20158;DHT22;10239;56.820;24.416;2024-02-26T13:25:41;11.30;99.90
20158;DHT22;10239;56.820;24.416;2024-02-26T13:28:16;11.30;99.90
20158;DHT22;10239;56.820;24.416;2024-02-26T13:30:58;11.20;99.90
20158;DHT22;10239;56.820;24.416;2024-02-26T13:33:28;11.30;99.90
20158;DHT22;10239;56.820;24.416;2024-02-26T13:35:57;11.50;99.90
20158;DHT22;10239;56.820;24.416;2024-02-26T13:38:26;11.50;99.90
20158;DHT22;10239;56.820;24.416;2024-02-26T13:40:54;11.50;99.90
20158;DHT22;10239;56.820;24.416;2024-02-26T13:43:22;11.50;99.90
20158;DHT22;10239;56.820;24.416;2024-02-26T13:45:50;11.40;99.90
20158;DHT22;10239;56.820;24.416;2024-02-26T13:48:17;11.50;99.90
20158;DHT22;10239;56.820;24.416;2024-02-26T13:50:45;11.60;99.90
20158;DHT22;10239;56.820;24.416;2024-02-26T13:53:14;11.40;99.90
20158;DHT22;10239;56.820;24.416;2024-02-26T13:55:42;11.50;99.90
20158;DHT22;10239;56.820;24.416;2024-02-26T13:58:12;11.50;99.90
20158;DHT22;10239;56.820;24.416;2024-02-26T14:00:43;11.40;99.90
20158;DHT22;10239;56.820;24.416;2024-02-26T14:03:11;11.50;99.90
20158;DHT22;10239;56.820;24.416;2024-02-26T14:05:39;11.40;99.90
20158;DHT22;10239;56.820;24.416;2024-02-26T14:08:11;11.30;99.90
20158;DHT22;10239;56.820;24.416;2024-02-26T14:10:39;11.30;99.90
20158;DHT22;10239;56.820;24.416;2024-02-26T14:13:07;11.40;99.90
20158;DHT22;10239;56.820;24.416;2024-02-26T14:15:34;11.40;99.90
20158;DHT22;10239;56.820;24.416;2024-02-26T14:18:03;11.40;99.90
20158;DHT22;10239;56.820;24.416;2024-02-26T14:20:31;11.40;99.90
20158;DHT22;10239;56.820;24.416;2024-02-26T14:22:59;11.30;99.90
20158;DHT22;10239;56.820;24.416;2024-02-26T14:25:28;11.30;99.90
20158;DHT22;10239;56.820;24.416;2024-02-26T14:27:57;11.40;99.90
20158;DHT22;10239;56.820;24.416;2024-02-26T14:30:26;11.30;99.90
20158;DHT22;10239;56.820;24.416;2024-02-26T14:32:54;11.30;99.90
20158;DHT22;10239;56.820;24.416;2024-02-26T14:35:22;11.30;99.90
20158;DHT22;10239;56.820;24.416;2024-02-26T14:37:50;11.40;99.90
20158;DHT22;10239;56.820;24.416;2024-02-26T14:40:20;11.50;99.90
20158;DHT22;10239;56.820;24.416;2024-02-26T14:42:48;11.50;99.90
20158;DHT22;10239;56.820;24.416;2024-02-26T14:45:15;11.40;99.90
20158;DHT22;10239;56.820;24.416;2024-02-26T14:47:44;11.50;99.90
20158;DHT22;10239;56.820;24.416;2024-02-26T14:50:12;11.40;99.90
20158;DHT22;10239;56.820;24.416;2024-02-26T14:52:39;11.50;99.90
20158;DHT22;10239;56.820;24.416;2024-02-26T14:55:07;11.50;99.90
20158;DHT22;10239;56.820;24.416;2024-02-26T14:57:35;11.50;99.90
20158;DHT22;10239;56.820;24.416;2024-02-26T15:00:02;11.50;99.90
20158;DHT22;10239;56.820;24.416;2024-02-26T15:02:33;11.40;99.90
20158;DHT22;10239;56.820;24.416;2024-02-26T15:05:00;11.50;99.90
20158;DHT22;10239;56.820;24.416;2024-02-26T15:07:28;11.40;99.90
20158;DHT22;10239;56.820;24.416;2024-02-26T15:09:55;11.30;99.90
20158;DHT22;10239;56.820;24.416;2024-02-26T15:12:27;11.30;99.90
20158;DHT22;10239;56.820;24.416;2024-02-26T15:14:58;11.30;99.90
20158;DHT22;10239;56.820;24.416;2024-02-26T15:17:27;11.30;99.90
20158;DHT22;10239;56.820;24.416;2024-02-26T15:20:01;11.30;99.90
20158;DHT22;10239;56.820;24.416;2024-02-26T15:22:29;11.30;99.90
20158;DHT22;10239;56.820;24.416;2024-02-26T15:24:57;11.30;99.90
20158;DHT22;10239;56.820;24.416;2024-02-26T15:27:24;11.20;99.90
20158;DHT22;10239;56.820;24.416;2024-02-26T15:29:56;11.00;99.90
20158;DHT22;10239;56.820;24.416;2024-02-26T15:32:26;11.00;99.90
20158;DHT22;10239;56.820;24.416;2024-02-26T15:34:54;11.00;99.90
20158;DHT22;10239;56.820;24.416;2024-02-26T15:37:23;10.90;99.90
20158;DHT22;10239;56.820;24.416;2024-02-26T15:39:51;10.90;99.90